sensor_id;sensor_type;location;lat;lon;timestamp;pressure;altitude;pressure_sealevel;temperature;humidity
54994;BME280;40891;47.242;8.648;2023-07-31T00:00:05;96493.88;;;18.20;85.46
54994;BME280;40891;47.242;8.648;2023-07-31T00:02:30;96492.03;;;18.12;85.88
54994;BME280;40891;47.242;8.648;2023-07-31T00:04:55;96492.81;;;18.12;85.01
54994;BME280;40891;47.242;8.648;2023-07-31T00:07:21;96491.22;;;18.06;85.74
54994;BME280;40891;47.242;8.648;2023-07-31T00:09:46;96495.03;;;18.03;85.24
54994;BME280;40891;47.242;8.648;2023-07-31T00:12:11;96495.56;;;18.07;86.37
54994;BME280;40891;47.242;8.648;2023-07-31T00:14:37;96480.22;;;18.08;86.72
54994;BME280;40891;47.242;8.648;2023-07-31T00:17:02;96483.22;;;17.99;86.39
54994;BME280;40891;47.242;8.648;2023-07-31T00:19:27;96481.97;;;18.00;85.44
54994;BME280;40891;47.242;8.648;2023-07-31T00:21:53;96471.44;;;17.95;86.87
54994;BME280;40891;47.242;8.648;2023-07-31T00:24:18;96479.63;;;17.98;87.14
54994;BME280;40891;47.242;8.648;2023-07-31T00:26:43;96476.81;;;17.98;85.55
54994;BME280;40891;47.242;8.648;2023-07-31T00:29:09;96477.84;;;17.95;86.33
54994;BME280;40891;47.242;8.648;2023-07-31T00:31:34;96486.28;;;17.95;86.46
54994;BME280;40891;47.242;8.648;2023-07-31T00:33:59;96488.38;;;18.06;84.47
54994;BME280;40891;47.242;8.648;2023-07-31T00:36:25;96484.38;;;18.18;84.84
54994;BME280;40891;47.242;8.648;2023-07-31T00:38:50;96480.84;;;18.23;84.27
54994;BME280;40891;47.242;8.648;2023-07-31T00:41:15;96482.63;;;18.20;85.25
54994;BME280;40891;47.242;8.648;2023-07-31T00:43:40;96478.75;;;18.18;85.16
54994;BME280;40891;47.242;8.648;2023-07-31T00:46:06;96484.44;;;18.23;84.63
54994;BME280;40891;47.242;8.648;2023-07-31T00:48:32;96483.97;;;18.30;84.21
54994;BME280;40891;47.242;8.648;2023-07-31T00:50:58;96489.09;;;18.32;84.38
54994;BME280;40891;47.242;8.648;2023-07-31T00:53:24;96491.69;;;18.35;85.57
54994;BME280;40891;47.242;8.648;2023-07-31T00:55:50;96479.97;;;18.43;85.17
54994;BME280;40891;47.242;8.648;2023-07-31T00:58:15;96484.31;;;18.44;84.06
54994;BME280;40891;47.242;8.648;2023-07-31T01:00:41;96476.38;;;18.42;83.49
54994;BME280;40891;47.242;8.648;2023-07-31T01:03:06;96479.25;;;18.48;84.27
54994;BME280;40891;47.242;8.648;2023-07-31T01:08:54;96467.16;;;18.42;83.60
54994;BME280;40891;47.242;8.648;2023-07-31T01:11:28;96471.75;;;18.39;84.32
54994;BME280;40891;47.242;8.648;2023-07-31T01:13:55;96468.91;;;18.39;84.70
54994;BME280;40891;47.242;8.648;2023-07-31T01:16:20;96476.84;;;18.35;84.66
54994;BME280;40891;47.242;8.648;2023-07-31T01:18:46;96476.78;;;18.29;85.31
54994;BME280;40891;47.242;8.648;2023-07-31T01:26:28;96465.94;;;18.11;85.12
54994;BME280;40891;47.242;8.648;2023-07-31T01:29:02;96455.41;;;18.06;85.55
54994;BME280;40891;47.242;8.648;2023-07-31T01:31:29;96455.91;;;18.05;85.28
54994;BME280;40891;47.242;8.648;2023-07-31T01:33:58;96457.41;;;18.00;86.15
54994;BME280;40891;47.242;8.648;2023-07-31T01:36:25;96456.84;;;17.96;88.11
54994;BME280;40891;47.242;8.648;2023-07-31T01:38:50;96460.38;;;17.91;88.01
54994;BME280;40891;47.242;8.648;2023-07-31T01:41:18;96450.19;;;17.94;88.62
54994;BME280;40891;47.242;8.648;2023-07-31T01:43:45;96458.81;;;17.85;89.29
54994;BME280;40891;47.242;8.648;2023-07-31T01:46:11;96449.59;;;17.84;90.51
54994;BME280;40891;47.242;8.648;2023-07-31T01:48:36;96451.09;;;17.80;90.49
54994;BME280;40891;47.242;8.648;2023-07-31T01:51:02;96445.44;;;17.74;90.77
54994;BME280;40891;47.242;8.648;2023-07-31T01:53:28;96445.13;;;17.66;91.76
54994;BME280;40891;47.242;8.648;2023-07-31T01:55:54;96445.38;;;17.68;91.27
54994;BME280;40891;47.242;8.648;2023-07-31T01:58:19;96442.03;;;17.64;91.41
54994;BME280;40891;47.242;8.648;2023-07-31T02:00:44;96433.81;;;17.61;90.53
54994;BME280;40891;47.242;8.648;2023-07-31T02:03:11;96426.94;;;17.67;89.66
54994;BME280;40891;47.242;8.648;2023-07-31T02:05:36;96424.59;;;17.60;89.94
54994;BME280;40891;47.242;8.648;2023-07-31T02:08:02;96429.19;;;17.58;88.66
54994;BME280;40891;47.242;8.648;2023-07-31T02:10:27;96429.41;;;17.54;87.69
54994;BME280;40891;47.242;8.648;2023-07-31T02:12:52;96421.97;;;17.51;86.48
54994;BME280;40891;47.242;8.648;2023-07-31T02:15:18;96407.84;;;17.46;84.50
54994;BME280;40891;47.242;8.648;2023-07-31T02:17:43;96411.38;;;17.41;83.42
54994;BME280;40891;47.242;8.648;2023-07-31T02:20:09;96412.59;;;17.34;83.46
54994;BME280;40891;47.242;8.648;2023-07-31T02:22:34;96407.47;;;17.33;83.94
54994;BME280;40891;47.242;8.648;2023-07-31T02:25:00;96405.38;;;17.28;83.46
54994;BME280;40891;47.242;8.648;2023-07-31T02:27:25;96412.81;;;17.31;82.30
54994;BME280;40891;47.242;8.648;2023-07-31T02:29:52;96404.31;;;17.25;82.96
54994;BME280;40891;47.242;8.648;2023-07-31T02:32:17;96410.38;;;17.18;82.56
54994;BME280;40891;47.242;8.648;2023-07-31T02:34:43;96411.66;;;17.17;82.33
54994;BME280;40891;47.242;8.648;2023-07-31T02:37:08;96411.38;;;17.15;82.33
54994;BME280;40891;47.242;8.648;2023-07-31T02:39:33;96411.09;;;17.13;81.93
54994;BME280;40891;47.242;8.648;2023-07-31T02:41:59;96404.22;;;17.14;81.50
54994;BME280;40891;47.242;8.648;2023-07-31T02:44:25;96411.38;;;17.15;81.92
54994;BME280;40891;47.242;8.648;2023-07-31T02:46:51;96416.28;;;17.20;81.13
54994;BME280;40891;47.242;8.648;2023-07-31T02:49:16;96410.00;;;17.31;81.05
54994;BME280;40891;47.242;8.648;2023-07-31T02:51:41;96416.66;;;17.33;80.26
54994;BME280;40891;47.242;8.648;2023-07-31T02:54:07;96414.66;;;17.39;80.14
54994;BME280;40891;47.242;8.648;2023-07-31T02:56:32;96410.72;;;17.51;79.55
54994;BME280;40891;47.242;8.648;2023-07-31T02:58:57;96411.72;;;17.48;81.06
54994;BME280;40891;47.242;8.648;2023-07-31T03:01:22;96407.34;;;17.47;82.36
54994;BME280;40891;47.242;8.648;2023-07-31T03:03:48;96414.13;;;17.35;82.63
54994;BME280;40891;47.242;8.648;2023-07-31T03:06:13;96417.22;;;17.37;84.01
54994;BME280;40891;47.242;8.648;2023-07-31T03:08:38;96412.38;;;17.38;84.47
54994;BME280;40891;47.242;8.648;2023-07-31T03:11:04;96412.41;;;17.43;84.07
54994;BME280;40891;47.242;8.648;2023-07-31T03:13:29;96399.09;;;17.38;84.10
54994;BME280;40891;47.242;8.648;2023-07-31T03:15:54;96400.34;;;17.37;84.06
54994;BME280;40891;47.242;8.648;2023-07-31T03:18:19;96406.47;;;17.36;84.83
54994;BME280;40891;47.242;8.648;2023-07-31T03:20:45;96406.41;;;17.30;85.76
54994;BME280;40891;47.242;8.648;2023-07-31T03:23:10;96407.97;;;17.31;85.35
54994;BME280;40891;47.242;8.648;2023-07-31T03:25:35;96414.66;;;17.39;85.47
54994;BME280;40891;47.242;8.648;2023-07-31T03:28:01;96408.56;;;17.41;84.54
54994;BME280;40891;47.242;8.648;2023-07-31T03:30:26;96410.16;;;17.47;83.97
54994;BME280;40891;47.242;8.648;2023-07-31T03:32:51;96420.88;;;17.49;82.81
54994;BME280;40891;47.242;8.648;2023-07-31T03:35:17;96414.31;;;17.52;82.78
54994;BME280;40891;47.242;8.648;2023-07-31T03:37:42;96416.91;;;17.55;81.86
54994;BME280;40891;47.242;8.648;2023-07-31T03:40:08;96418.75;;;17.64;82.20
54994;BME280;40891;47.242;8.648;2023-07-31T03:42:33;96421.13;;;17.71;83.01
54994;BME280;40891;47.242;8.648;2023-07-31T03:44:58;96416.53;;;17.74;81.79
54994;BME280;40891;47.242;8.648;2023-07-31T03:47:24;96419.09;;;17.72;81.88
54994;BME280;40891;47.242;8.648;2023-07-31T03:49:49;96417.25;;;17.68;83.44
54994;BME280;40891;47.242;8.648;2023-07-31T03:52:14;96415.69;;;17.62;83.41
54994;BME280;40891;47.242;8.648;2023-07-31T03:54:40;96423.56;;;17.58;85.16
54994;BME280;40891;47.242;8.648;2023-07-31T03:57:05;96429.41;;;17.54;84.62
54994;BME280;40891;47.242;8.648;2023-07-31T03:59:31;96428.91;;;17.56;85.06
54994;BME280;40891;47.242;8.648;2023-07-31T04:01:56;96432.50;;;17.56;84.02
54994;BME280;40891;47.242;8.648;2023-07-31T04:04:21;96435.31;;;17.56;86.37
54994;BME280;40891;47.242;8.648;2023-07-31T04:06:47;96439.41;;;17.55;84.31
54994;BME280;40891;47.242;8.648;2023-07-31T04:09:12;96435.84;;;17.60;84.63
54994;BME280;40891;47.242;8.648;2023-07-31T04:11:37;96426.41;;;17.63;84.57
54994;BME280;40891;47.242;8.648;2023-07-31T04:14:04;96436.69;;;17.66;84.36
54994;BME280;40891;47.242;8.648;2023-07-31T04:16:29;96444.28;;;17.60;83.52
54994;BME280;40891;47.242;8.648;2023-07-31T04:18:55;96442.38;;;17.72;82.54
54994;BME280;40891;47.242;8.648;2023-07-31T04:21:20;96443.09;;;17.73;83.07
54994;BME280;40891;47.242;8.648;2023-07-31T04:23:45;96438.50;;;17.70;84.16
54994;BME280;40891;47.242;8.648;2023-07-31T04:26:11;96445.44;;;17.74;84.47
54994;BME280;40891;47.242;8.648;2023-07-31T04:28:36;96442.84;;;17.71;84.89
54994;BME280;40891;47.242;8.648;2023-07-31T04:31:02;96436.53;;;17.81;83.91
54994;BME280;40891;47.242;8.648;2023-07-31T04:33:28;96440.13;;;17.82;83.62
54994;BME280;40891;47.242;8.648;2023-07-31T04:35:53;96440.41;;;17.84;81.75
54994;BME280;40891;47.242;8.648;2023-07-31T04:38:22;96443.50;;;17.86;81.80
54994;BME280;40891;47.242;8.648;2023-07-31T04:40:48;96447.06;;;17.86;81.14
54994;BME280;40891;47.242;8.648;2023-07-31T04:43:14;96448.13;;;17.89;80.57
54994;BME280;40891;47.242;8.648;2023-07-31T04:45:39;96449.59;;;17.84;78.23
54994;BME280;40891;47.242;8.648;2023-07-31T04:48:07;96439.38;;;17.87;78.17
54994;BME280;40891;47.242;8.648;2023-07-31T04:50:32;96444.03;;;17.90;79.31
54994;BME280;40891;47.242;8.648;2023-07-31T04:52:58;96446.31;;;17.86;79.05
54994;BME280;40891;47.242;8.648;2023-07-31T04:55:23;96453.00;;;17.94;79.29
54994;BME280;40891;47.242;8.648;2023-07-31T04:57:49;96448.16;;;17.94;80.43
54994;BME280;40891;47.242;8.648;2023-07-31T05:00:14;96450.47;;;17.96;78.85
54994;BME280;40891;47.242;8.648;2023-07-31T05:02:40;96443.38;;;18.06;79.62
54994;BME280;40891;47.242;8.648;2023-07-31T05:05:05;96441.59;;;18.08;79.96
54994;BME280;40891;47.242;8.648;2023-07-31T05:07:30;96443.63;;;18.08;79.05
54994;BME280;40891;47.242;8.648;2023-07-31T05:09:56;96450.59;;;18.12;80.88
54994;BME280;40891;47.242;8.648;2023-07-31T05:12:21;96454.22;;;18.18;79.33
54994;BME280;40891;47.242;8.648;2023-07-31T05:14:46;96451.66;;;18.20;79.44
54994;BME280;40891;47.242;8.648;2023-07-31T05:17:11;96446.34;;;18.28;78.83
54994;BME280;40891;47.242;8.648;2023-07-31T05:19:37;96433.03;;;18.28;79.64
54994;BME280;40891;47.242;8.648;2023-07-31T05:22:02;96438.22;;;18.41;79.77
54994;BME280;40891;47.242;8.648;2023-07-31T05:24:27;96449.31;;;18.50;75.56
54994;BME280;40891;47.242;8.648;2023-07-31T05:26:53;96443.00;;;18.29;74.93
54994;BME280;40891;47.242;8.648;2023-07-31T05:29:18;96446.91;;;18.38;73.58
54994;BME280;40891;47.242;8.648;2023-07-31T05:31:43;96440.00;;;18.38;73.34
54994;BME280;40891;47.242;8.648;2023-07-31T05:34:09;96434.97;;;18.48;75.02
54994;BME280;40891;47.242;8.648;2023-07-31T05:36:34;96440.44;;;18.26;74.89
54994;BME280;40891;47.242;8.648;2023-07-31T05:39:00;96441.97;;;18.27;76.74
54994;BME280;40891;47.242;8.648;2023-07-31T05:41:31;96437.13;;;18.27;77.75
54994;BME280;40891;47.242;8.648;2023-07-31T05:43:56;96446.91;;;18.38;76.53
54994;BME280;40891;47.242;8.648;2023-07-31T05:46:21;96439.38;;;18.60;75.68
54994;BME280;40891;47.242;8.648;2023-07-31T05:48:47;96444.03;;;18.69;73.18
54994;BME280;40891;47.242;8.648;2023-07-31T05:51:12;96449.13;;;18.65;75.10
54994;BME280;40891;47.242;8.648;2023-07-31T05:53:37;96457.56;;;18.65;74.80
54994;BME280;40891;47.242;8.648;2023-07-31T05:56:05;96456.06;;;18.69;74.28
54994;BME280;40891;47.242;8.648;2023-07-31T05:58:31;96451.44;;;18.66;75.05
54994;BME280;40891;47.242;8.648;2023-07-31T06:00:56;96456.84;;;18.70;76.64
54994;BME280;40891;47.242;8.648;2023-07-31T06:03:21;96458.13;;;18.74;75.97
54994;BME280;40891;47.242;8.648;2023-07-31T06:05:46;96453.06;;;18.78;69.59
54994;BME280;40891;47.242;8.648;2023-07-31T06:08:12;96440.81;;;18.92;70.05
54994;BME280;40891;47.242;8.648;2023-07-31T06:10:37;96438.53;;;19.02;70.45
54994;BME280;40891;47.242;8.648;2023-07-31T06:13:02;96437.81;;;19.18;68.47
54994;BME280;40891;47.242;8.648;2023-07-31T06:15:28;96441.94;;;19.34;65.07
54994;BME280;40891;47.242;8.648;2023-07-31T06:17:53;96445.84;;;19.47;67.36
54994;BME280;40891;47.242;8.648;2023-07-31T06:20:19;96453.53;;;19.52;66.22
54994;BME280;40891;47.242;8.648;2023-07-31T06:22:44;96447.38;;;19.48;69.37
54994;BME280;40891;47.242;8.648;2023-07-31T06:25:09;96450.47;;;19.56;66.73
54994;BME280;40891;47.242;8.648;2023-07-31T06:27:34;96448.69;;;19.64;66.60
54994;BME280;40891;47.242;8.648;2023-07-31T06:30:00;96453.03;;;19.59;67.34
54994;BME280;40891;47.242;8.648;2023-07-31T06:32:25;96446.91;;;19.61;68.63
54994;BME280;40891;47.242;8.648;2023-07-31T06:34:50;96433.03;;;19.74;69.61
54994;BME280;40891;47.242;8.648;2023-07-31T06:37:16;96431.00;;;19.75;71.01
54994;BME280;40891;47.242;8.648;2023-07-31T06:39:41;96425.38;;;19.80;70.23
54994;BME280;40891;47.242;8.648;2023-07-31T06:42:06;96412.03;;;19.75;71.10
54994;BME280;40891;47.242;8.648;2023-07-31T06:44:32;96412.03;;;19.75;74.88
54994;BME280;40891;47.242;8.648;2023-07-31T06:46:57;96413.28;;;19.74;72.76
54994;BME280;40891;47.242;8.648;2023-07-31T06:51:48;96414.06;;;19.97;73.19
54994;BME280;40891;47.242;8.648;2023-07-31T06:54:13;96420.72;;;20.05;73.43
54994;BME280;40891;47.242;8.648;2023-07-31T06:56:38;96416.34;;;20.20;73.16
54994;BME280;40891;47.242;8.648;2023-07-31T06:59:03;96411.22;;;20.13;72.73
54994;BME280;40891;47.242;8.648;2023-07-31T07:01:29;96425.34;;;20.24;69.56
54994;BME280;40891;47.242;8.648;2023-07-31T07:03:54;96425.59;;;20.26;68.92
54994;BME280;40891;47.242;8.648;2023-07-31T07:06:20;96423.28;;;20.36;69.77
54994;BME280;40891;47.242;8.648;2023-07-31T07:08:45;96424.53;;;20.35;69.66
54994;BME280;40891;47.242;8.648;2023-07-31T07:11:11;96420.97;;;20.34;68.83
54994;BME280;40891;47.242;8.648;2023-07-31T07:13:36;96415.56;;;20.37;69.15
54994;BME280;40891;47.242;8.648;2023-07-31T07:16:01;96409.38;;;20.38;69.60
54994;BME280;40891;47.242;8.648;2023-07-31T07:18:27;96399.78;;;20.69;66.78
54994;BME280;40891;47.242;8.648;2023-07-31T07:20:53;96384.94;;;20.63;68.21
54994;BME280;40891;47.242;8.648;2023-07-31T07:23:19;96383.13;;;20.60;65.52
54994;BME280;40891;47.242;8.648;2023-07-31T07:25:45;96381.63;;;20.53;63.55
54994;BME280;40891;47.242;8.648;2023-07-31T07:28:10;96374.41;;;20.52;64.37
54994;BME280;40891;47.242;8.648;2023-07-31T07:30:36;96377.47;;;20.65;64.36
54994;BME280;40891;47.242;8.648;2023-07-31T07:33:01;96373.66;;;20.52;64.42
54994;BME280;40891;47.242;8.648;2023-07-31T07:35:26;96375.25;;;20.30;65.94
54994;BME280;40891;47.242;8.648;2023-07-31T07:37:52;96384.50;;;20.25;66.25
54994;BME280;40891;47.242;8.648;2023-07-31T07:40:18;96385.81;;;20.24;65.69
54994;BME280;40891;47.242;8.648;2023-07-31T07:42:44;96387.31;;;20.31;66.24
54994;BME280;40891;47.242;8.648;2023-07-31T07:45:09;96391.72;;;20.26;66.34
54994;BME280;40891;47.242;8.648;2023-07-31T07:47:34;96392.72;;;20.12;64.10
54994;BME280;40891;47.242;8.648;2023-07-31T07:50:00;96382.47;;;20.09;66.60
54994;BME280;40891;47.242;8.648;2023-07-31T07:52:25;96383.97;;;20.21;66.64
54994;BME280;40891;47.242;8.648;2023-07-31T07:54:50;96377.00;;;20.45;65.80
54994;BME280;40891;47.242;8.648;2023-07-31T07:57:16;96388.59;;;20.41;64.92
54994;BME280;40891;47.242;8.648;2023-07-31T07:59:41;96379.59;;;20.43;65.48
54994;BME280;40891;47.242;8.648;2023-07-31T08:02:07;96390.94;;;20.31;63.10
54994;BME280;40891;47.242;8.648;2023-07-31T08:04:32;96394.81;;;20.06;61.24
54994;BME280;40891;47.242;8.648;2023-07-31T08:06:57;96394.53;;;20.32;64.62
54994;BME280;40891;47.242;8.648;2023-07-31T08:09:23;96398.63;;;20.37;62.31
54994;BME280;40891;47.242;8.648;2023-07-31T08:11:48;96397.84;;;20.42;63.28
54994;BME280;40891;47.242;8.648;2023-07-31T08:14:13;96401.41;;;20.48;62.87
54994;BME280;40891;47.242;8.648;2023-07-31T08:16:39;96399.31;;;20.59;63.44
54994;BME280;40891;47.242;8.648;2023-07-31T08:19:04;96408.63;;;20.38;64.17
54994;BME280;40891;47.242;8.648;2023-07-31T08:21:29;96394.94;;;20.64;65.69
54994;BME280;40891;47.242;8.648;2023-07-31T08:23:55;96391.53;;;20.82;65.10
54994;BME280;40891;47.242;8.648;2023-07-31T08:26:20;96389.72;;;20.84;64.36
54994;BME280;40891;47.242;8.648;2023-07-31T08:28:46;96390.69;;;20.92;63.34
54994;BME280;40891;47.242;8.648;2023-07-31T08:31:12;96391.16;;;21.02;61.37
54994;BME280;40891;47.242;8.648;2023-07-31T08:33:38;96394.50;;;21.06;60.97
54994;BME280;40891;47.242;8.648;2023-07-31T08:36:04;96393.34;;;21.31;61.19
54994;BME280;40891;47.242;8.648;2023-07-31T08:38:30;96381.59;;;21.51;63.46
54994;BME280;40891;47.242;8.648;2023-07-31T08:40:58;96380.53;;;21.60;59.98
54994;BME280;40891;47.242;8.648;2023-07-31T08:43:27;96370.53;;;22.13;59.46
54994;BME280;40891;47.242;8.648;2023-07-31T08:45:53;96364.00;;;22.48;53.49
54994;BME280;40891;47.242;8.648;2023-07-31T08:48:20;96356.47;;;22.74;52.57
54994;BME280;40891;47.242;8.648;2023-07-31T08:50:45;96360.09;;;22.75;53.41
54994;BME280;40891;47.242;8.648;2023-07-31T08:53:11;96355.91;;;23.19;54.14
54994;BME280;40891;47.242;8.648;2023-07-31T08:55:38;96354.66;;;23.51;52.03
54994;BME280;40891;47.242;8.648;2023-07-31T08:58:04;96350.97;;;23.38;52.72
54994;BME280;40891;47.242;8.648;2023-07-31T09:00:32;96329.00;;;24.02;54.19
54994;BME280;40891;47.242;8.648;2023-07-31T09:03:00;96339.81;;;24.03;50.04
54994;BME280;40891;47.242;8.648;2023-07-31T09:05:31;96330.31;;;24.01;49.68
54994;BME280;40891;47.242;8.648;2023-07-31T09:07:57;96337.25;;;23.42;49.83
54994;BME280;40891;47.242;8.648;2023-07-31T09:10:23;96340.47;;;23.51;52.53
54994;BME280;40891;47.242;8.648;2023-07-31T09:12:51;96331.03;;;23.88;54.30
54994;BME280;40891;47.242;8.648;2023-07-31T09:15:17;96323.69;;;24.24;50.43
54994;BME280;40891;47.242;8.648;2023-07-31T09:17:42;96330.75;;;24.05;49.19
54994;BME280;40891;47.242;8.648;2023-07-31T09:20:15;96326.22;;;23.70;50.43
54994;BME280;40891;47.242;8.648;2023-07-31T09:22:41;96331.19;;;23.64;50.74
54994;BME280;40891;47.242;8.648;2023-07-31T09:25:21;96326.13;;;23.89;51.42
54994;BME280;40891;47.242;8.648;2023-07-31T09:30:17;96334.09;;;23.90;50.61
54994;BME280;40891;47.242;8.648;2023-07-31T09:32:43;96326.09;;;24.60;48.91
54994;BME280;40891;47.242;8.648;2023-07-31T09:37:39;96316.25;;;25.21;47.80
54994;BME280;40891;47.242;8.648;2023-07-31T09:40:04;96315.63;;;26.10;48.60
54994;BME280;40891;47.242;8.648;2023-07-31T09:42:30;96311.66;;;25.93;43.87
54994;BME280;40891;47.242;8.648;2023-07-31T09:45:07;96302.06;;;26.31;43.82
54994;BME280;40891;47.242;8.648;2023-07-31T09:47:32;96293.53;;;26.67;43.55
54994;BME280;40891;47.242;8.648;2023-07-31T09:49:58;96298.69;;;26.69;43.71
54994;BME280;40891;47.242;8.648;2023-07-31T09:52:26;96297.63;;;26.79;43.89
54994;BME280;40891;47.242;8.648;2023-07-31T09:54:51;96300.34;;;27.51;43.95
54994;BME280;40891;47.242;8.648;2023-07-31T09:57:16;96298.28;;;27.00;43.11
54994;BME280;40891;47.242;8.648;2023-07-31T09:59:42;96286.25;;;26.87;43.13
54994;BME280;40891;47.242;8.648;2023-07-31T10:02:13;96288.44;;;26.38;44.87
54994;BME280;40891;47.242;8.648;2023-07-31T10:04:40;96287.00;;;25.54;44.74
54994;BME280;40891;47.242;8.648;2023-07-31T10:07:08;96295.75;;;25.56;44.70
54994;BME280;40891;47.242;8.648;2023-07-31T10:09:34;96287.56;;;24.85;47.29
54994;BME280;40891;47.242;8.648;2023-07-31T10:12:00;96283.63;;;25.55;48.18
54994;BME280;40891;47.242;8.648;2023-07-31T10:14:27;96280.53;;;24.99;47.94
54994;BME280;40891;47.242;8.648;2023-07-31T10:16:56;96270.72;;;24.87;48.96
54994;BME280;40891;47.242;8.648;2023-07-31T10:19:22;96275.88;;;24.62;49.20
54994;BME280;40891;47.242;8.648;2023-07-31T10:21:48;96277.16;;;25.21;50.81
54994;BME280;40891;47.242;8.648;2023-07-31T10:24:14;96270.28;;;25.99;50.34
54994;BME280;40891;47.242;8.648;2023-07-31T10:26:41;96250.47;;;26.50;48.75
54994;BME280;40891;47.242;8.648;2023-07-31T10:29:09;96251.31;;;26.66;47.05
54994;BME280;40891;47.242;8.648;2023-07-31T10:31:34;96253.94;;;26.56;44.92
54994;BME280;40891;47.242;8.648;2023-07-31T10:34:00;96252.38;;;26.48;44.48
54994;BME280;40891;47.242;8.648;2023-07-31T10:36:28;96250.28;;;26.91;44.54
54994;BME280;40891;47.242;8.648;2023-07-31T10:38:55;96252.41;;;26.98;44.18
54994;BME280;40891;47.242;8.648;2023-07-31T10:41:28;96251.41;;;26.88;43.63
54994;BME280;40891;47.242;8.648;2023-07-31T10:43:57;96248.47;;;26.30;44.04
54994;BME280;40891;47.242;8.648;2023-07-31T10:46:22;96244.75;;;26.50;44.61
54994;BME280;40891;47.242;8.648;2023-07-31T10:48:57;96226.47;;;26.10;45.71
54994;BME280;40891;47.242;8.648;2023-07-31T10:51:23;96236.44;;;25.96;46.55
54994;BME280;40891;47.242;8.648;2023-07-31T10:54:10;96245.69;;;25.89;46.89
54994;BME280;40891;47.242;8.648;2023-07-31T10:56:39;96232.28;;;26.25;48.74
54994;BME280;40891;47.242;8.648;2023-07-31T10:59:05;96233.09;;;26.05;47.50
54994;BME280;40891;47.242;8.648;2023-07-31T11:04:22;96214.16;;;26.15;50.10
54994;BME280;40891;47.242;8.648;2023-07-31T11:06:59;96209.41;;;26.53;47.16
54994;BME280;40891;47.242;8.648;2023-07-31T11:09:28;96199.72;;;27.15;43.85
54994;BME280;40891;47.242;8.648;2023-07-31T11:11:55;96193.09;;;26.61;46.00
54994;BME280;40891;47.242;8.648;2023-07-31T11:14:21;96193.59;;;26.88;46.85
54994;BME280;40891;47.242;8.648;2023-07-31T11:16:49;96189.09;;;27.30;44.95
54994;BME280;40891;47.242;8.648;2023-07-31T11:19:15;96173.06;;;27.95;43.67
54994;BME280;40891;47.242;8.648;2023-07-31T11:21:45;96167.59;;;28.45;45.15
54994;BME280;40891;47.242;8.648;2023-07-31T11:24:12;96158.34;;;29.33;41.86
54994;BME280;40891;47.242;8.648;2023-07-31T11:26:37;96166.97;;;30.00;41.38
54994;BME280;40891;47.242;8.648;2023-07-31T11:29:11;96158.53;;;30.36;39.20
54994;BME280;40891;47.242;8.648;2023-07-31T11:31:42;96152.31;;;30.74;38.56
54994;BME280;40891;47.242;8.648;2023-07-31T11:34:07;96144.47;;;30.74;37.99
54994;BME280;40891;47.242;8.648;2023-07-31T11:36:33;96138.25;;;31.22;40.15
54994;BME280;40891;47.242;8.648;2023-07-31T11:39:07;96134.59;;;31.48;35.28
54994;BME280;40891;47.242;8.648;2023-07-31T11:41:33;96141.75;;;31.66;35.66
54994;BME280;40891;47.242;8.648;2023-07-31T11:44:02;96147.78;;;32.45;36.72
54994;BME280;40891;47.242;8.648;2023-07-31T11:46:30;96139.16;;;33.33;35.81
54994;BME280;40891;47.242;8.648;2023-07-31T11:48:59;96144.88;;;34.25;31.64
54994;BME280;40891;47.242;8.648;2023-07-31T11:51:25;96140.25;;;35.07;31.37
54994;BME280;40891;47.242;8.648;2023-07-31T11:53:52;96148.19;;;35.29;31.28
54994;BME280;40891;47.242;8.648;2023-07-31T11:56:20;96136.16;;;35.56;29.56
54994;BME280;40891;47.242;8.648;2023-07-31T11:58:49;96133.97;;;36.14;29.36
54994;BME280;40891;47.242;8.648;2023-07-31T12:01:18;96127.97;;;36.84;28.81
54994;BME280;40891;47.242;8.648;2023-07-31T12:03:44;96127.06;;;36.93;29.01
54994;BME280;40891;47.242;8.648;2023-07-31T12:06:10;96116.06;;;36.92;26.79
54994;BME280;40891;47.242;8.648;2023-07-31T12:08:36;96110.91;;;36.65;27.25
54994;BME280;40891;47.242;8.648;2023-07-31T12:11:06;96115.00;;;37.24;26.48
54994;BME280;40891;47.242;8.648;2023-07-31T12:13:32;96104.22;;;38.33;27.66
54994;BME280;40891;47.242;8.648;2023-07-31T12:16:00;96108.28;;;38.42;26.20
54994;BME280;40891;47.242;8.648;2023-07-31T12:18:28;96103.47;;;38.62;23.54
54994;BME280;40891;47.242;8.648;2023-07-31T12:20:56;96107.56;;;38.14;24.36
54994;BME280;40891;47.242;8.648;2023-07-31T12:23:26;96098.91;;;39.62;25.88
54994;BME280;40891;47.242;8.648;2023-07-31T12:26:11;96100.09;;;39.88;25.10
54994;BME280;40891;47.242;8.648;2023-07-31T12:28:47;96096.63;;;38.85;25.30
54994;BME280;40891;47.242;8.648;2023-07-31T12:31:18;96100.88;;;39.73;24.15
54994;BME280;40891;47.242;8.648;2023-07-31T12:33:45;96086.56;;;40.97;23.26
54994;BME280;40891;47.242;8.648;2023-07-31T12:36:33;96084.13;;;39.89;22.75
54994;BME280;40891;47.242;8.648;2023-07-31T12:39:00;96079.84;;;40.41;22.30
54994;BME280;40891;47.242;8.648;2023-07-31T12:41:26;96085.41;;;39.08;24.33
54994;BME280;40891;47.242;8.648;2023-07-31T12:43:51;96077.25;;;40.32;23.51
54994;BME280;40891;47.242;8.648;2023-07-31T12:46:16;96080.06;;;39.96;21.68
54994;BME280;40891;47.242;8.648;2023-07-31T12:48:42;96071.31;;;39.63;25.06
54994;BME280;40891;47.242;8.648;2023-07-31T12:51:07;96073.34;;;40.43;21.73
54994;BME280;40891;47.242;8.648;2023-07-31T12:53:32;96066.78;;;41.30;21.13
54994;BME280;40891;47.242;8.648;2023-07-31T12:55:58;96064.53;;;41.49;21.14
54994;BME280;40891;47.242;8.648;2023-07-31T12:58:24;96058.56;;;41.45;21.78
54994;BME280;40891;47.242;8.648;2023-07-31T13:00:50;96056.44;;;41.27;21.31
54994;BME280;40891;47.242;8.648;2023-07-31T13:03:15;96063.97;;;40.97;21.36
54994;BME280;40891;47.242;8.648;2023-07-31T13:05:41;96047.25;;;41.74;21.94
54994;BME280;40891;47.242;8.648;2023-07-31T13:08:06;96044.94;;;41.71;21.53
54994;BME280;40891;47.242;8.648;2023-07-31T13:10:31;96041.97;;;41.69;21.10
54994;BME280;40891;47.242;8.648;2023-07-31T13:12:57;96027.25;;;41.47;20.17